createdAt,value
2019-05-22T00:00:16.051Z,44.95
2019-05-22T00:01:16.032Z,44.45
2019-05-22T00:02:16.028Z,44.55
2019-05-22T00:03:16.021Z,44.35
2019-05-22T00:04:16.023Z,44.75
2019-05-22T00:05:16.012Z,44.45
2019-05-22T00:06:15.992Z,44.65
2019-05-22T00:07:16.003Z,44.75
2019-05-22T00:08:15.986Z,44.45
2019-05-22T00:09:15.976Z,44.95
2019-05-22T00:10:15.969Z,44.65
2019-05-22T00:11:15.967Z,44.95
2019-05-22T00:12:15.954Z,44.95
2019-05-22T00:13:15.945Z,44.75
2019-05-22T00:14:15.943Z,44.65
2019-05-22T00:15:16.092Z,44.65
2019-05-22T00:16:15.928Z,44.45
2019-05-22T00:17:15.915Z,44.75
2019-05-22T00:18:15.906Z,44.45
2019-05-22T00:19:15.902Z,44.45
2019-05-22T00:20:15.899Z,44.75
2019-05-22T00:21:15.903Z,44.35
2019-05-22T00:22:15.902Z,44.55
2019-05-22T00:23:15.889Z,44.65
2019-05-22T00:24:15.884Z,44.75
2019-05-22T00:25:15.910Z,44.65
2019-05-22T00:26:15.884Z,44.55
2019-05-22T00:27:15.879Z,44.95
2019-05-22T00:28:15.870Z,44.45
2019-05-22T00:29:15.864Z,44.57
2019-05-22T00:30:15.857Z,44.75
2019-05-22T00:31:15.849Z,44.65
2019-05-22T00:32:15.928Z,44.85
2019-05-22T00:33:15.836Z,44.75
2019-05-22T00:34:15.821Z,44.45
2019-05-22T00:35:15.811Z,44.55
2019-05-22T00:36:15.802Z,44.45
2019-05-22T00:37:15.799Z,44.75
2019-05-22T00:38:15.799Z,44.45
2019-05-22T00:39:15.784Z,44.35
2019-05-22T00:40:15.779Z,44.55
2019-05-22T00:41:15.769Z,44.15
2019-05-22T00:42:15.762Z,44.75
2019-05-22T00:43:15.768Z,44.95
2019-05-22T00:44:15.746Z,44.45
2019-05-22T00:45:15.742Z,44.65
2019-05-22T00:46:15.729Z,44.55
2019-05-22T00:47:15.727Z,44.45
2019-05-22T00:48:15.714Z,44.57
2019-05-22T00:49:15.708Z,44.55
2019-05-22T00:50:15.697Z,44.55
2019-05-22T00:51:15.686Z,44.55
2019-05-22T00:52:15.683Z,44.55
2019-05-22T00:53:15.674Z,44.65
2019-05-22T00:54:15.675Z,44.75
2019-05-22T00:55:15.664Z,44.37
2019-05-22T00:56:15.653Z,44.75
2019-05-22T00:57:15.642Z,44.15
2019-05-22T00:58:15.639Z,44.45
2019-05-22T00:59:15.630Z,44.45
2019-05-22T01:00:15.622Z,44.75
2019-05-22T01:01:15.608Z,44.75
2019-05-22T01:02:15.623Z,44.55
2019-05-22T01:03:15.615Z,44.35
2019-05-22T01:04:15.609Z,44.25
2019-05-22T01:05:15.614Z,44.25
2019-05-22T01:06:15.591Z,44.45
2019-05-22T01:07:15.582Z,44.45
2019-05-22T01:08:15.591Z,44.55
2019-05-22T01:09:15.592Z,44.45
2019-05-22T01:10:15.578Z,44.45
2019-05-22T01:11:15.583Z,44.45
2019-05-22T01:12:15.567Z,44.75
2019-05-22T01:13:15.560Z,44.35
2019-05-22T01:14:15.570Z,44.25
2019-05-22T01:15:15.565Z,44.47
2019-05-22T01:16:15.564Z,44.75
2019-05-22T01:17:15.552Z,44.15
2019-05-22T01:18:15.540Z,44.75
2019-05-22T01:19:15.536Z,44.78
2019-05-22T01:20:15.524Z,44.25
2019-05-22T01:21:15.528Z,44.15
2019-05-22T01:22:15.510Z,44.75
2019-05-22T01:23:15.502Z,44.55
2019-05-22T01:24:15.492Z,44.45
2019-05-22T01:25:15.483Z,44.45
2019-05-22T01:26:15.498Z,44.35
2019-05-22T01:27:15.485Z,44.25
2019-05-22T01:28:15.496Z,44.15
2019-05-22T01:29:15.484Z,44.37
2019-05-22T01:30:15.485Z,44.75
2019-05-22T01:31:15.520Z,44.27
2019-05-22T01:32:15.471Z,44.75
2019-05-22T01:33:15.454Z,44.05
2019-05-22T01:34:15.449Z,44.05
2019-05-22T01:35:15.449Z,44.35
2019-05-22T01:36:15.443Z,44.55
2019-05-22T01:37:15.447Z,44.17
2019-05-22T01:38:15.433Z,44.15
2019-05-22T01:39:15.477Z,44.45
2019-05-22T01:40:15.414Z,44.15
2019-05-22T01:41:15.407Z,44.25
2019-05-22T01:42:15.612Z,44.45
2019-05-22T01:43:15.388Z,44.57
2019-05-22T01:44:15.392Z,44.15
2019-05-22T01:45:15.388Z,44.15
2019-05-22T01:46:15.382Z,44.75
2019-05-22T01:47:15.373Z,44.05
2019-05-22T01:48:15.389Z,44.55
2019-05-22T01:49:15.367Z,44.37
2019-05-22T01:50:15.358Z,44.47
2019-05-22T01:51:15.356Z,44.45
2019-05-22T01:52:15.338Z,44.15
2019-05-22T01:53:15.336Z,44.37
2019-05-22T01:54:15.320Z,43.98
2019-05-22T01:55:15.322Z,44.55
2019-05-22T01:56:15.317Z,44.57
2019-05-22T01:57:15.300Z,44.35
2019-05-22T01:58:15.291Z,44.55
2019-05-22T01:59:15.288Z,44.78
2019-05-22T02:00:15.274Z,44.45
2019-05-22T02:01:15.271Z,43.95
2019-05-22T02:02:15.257Z,44.75
2019-05-22T02:03:15.247Z,44.45
2019-05-22T02:04:15.264Z,44.37
2019-05-22T02:05:15.240Z,44.17
2019-05-22T02:06:15.226Z,44.35
2019-05-22T02:07:15.217Z,44.15
2019-05-22T02:08:15.208Z,44.17
2019-05-22T02:09:15.198Z,44.07
2019-05-22T02:10:15.201Z,44.17
2019-05-22T02:11:15.184Z,44.35
2019-05-22T02:12:15.176Z,43.98
2019-05-22T02:13:15.169Z,44.17
2019-05-22T02:14:15.159Z,44.25
2019-05-22T02:15:15.154Z,44.15
2019-05-22T02:16:15.167Z,44.05
2019-05-22T02:17:15.157Z,44.17
2019-05-22T02:18:15.147Z,44.15
2019-05-22T02:19:15.140Z,44.35
2019-05-22T02:20:15.141Z,44.35
2019-05-22T02:21:15.138Z,44.45
2019-05-22T02:22:15.129Z,44.45
2019-05-22T02:23:15.126Z,44.45
2019-05-22T02:24:15.123Z,44.75
2019-05-22T02:25:15.123Z,44.45
2019-05-22T02:26:15.103Z,44.47
2019-05-22T02:27:15.101Z,44.35
2019-05-22T02:28:15.100Z,44.07
2019-05-22T02:29:15.094Z,44.55
2019-05-22T02:30:15.087Z,44.05
2019-05-22T02:31:15.092Z,44.25
2019-05-22T02:32:15.071Z,44.17
2019-05-22T02:33:15.066Z,44.15
2019-05-22T02:34:15.097Z,44.37
2019-05-22T02:35:15.047Z,44.25
2019-05-22T02:36:15.049Z,43.98
2019-05-22T02:37:15.054Z,44.55
2019-05-22T02:38:15.047Z,44.25
2019-05-22T02:39:15.039Z,44.27
2019-05-22T02:40:15.038Z,44.35
2019-05-22T02:41:15.037Z,44.07
2019-05-22T02:42:15.045Z,44.25
2019-05-22T02:43:15.003Z,44.15
2019-05-22T02:44:14.994Z,44.05
2019-05-22T02:45:14.985Z,43.95
2019-05-22T02:46:14.981Z,44.78
2019-05-22T02:47:19.834Z,44.35
2019-05-22T02:48:15.964Z,44.35
2019-05-22T02:49:14.953Z,43.98
2019-05-22T02:50:14.961Z,44.25
2019-05-22T02:51:14.941Z,44.15
2019-05-22T02:52:14.938Z,44.27
2019-05-22T02:53:14.956Z,44.15
2019-05-22T02:54:14.909Z,44.35
2019-05-22T02:55:14.919Z,44.05
2019-05-22T02:56:14.915Z,44.27
2019-05-22T02:57:14.914Z,44.25
2019-05-22T02:58:14.906Z,44.15
2019-05-22T02:59:14.888Z,44.15
2019-05-22T03:00:14.885Z,44.27
2019-05-22T03:01:14.874Z,44.25
2019-05-22T03:02:14.877Z,44.05
2019-05-22T03:03:14.858Z,44.25
2019-05-22T03:04:14.861Z,44.37
2019-05-22T03:05:14.841Z,44.25
2019-05-22T03:06:14.837Z,44.05
2019-05-22T03:07:14.831Z,44.05
2019-05-22T03:08:14.823Z,44.15
2019-05-22T03:09:14.899Z,44.27
2019-05-22T03:10:14.806Z,44.25
2019-05-22T03:11:14.798Z,43.95
2019-05-22T03:12:14.801Z,44.27
2019-05-22T03:13:14.798Z,44.45
2019-05-22T03:14:14.812Z,43.98
2019-05-22T03:15:14.796Z,44.05
2019-05-22T03:16:14.792Z,43.98
2019-05-22T03:17:14.779Z,44.15
2019-05-22T03:18:14.773Z,44.37
2019-05-22T03:19:14.775Z,44.17
2019-05-22T03:20:14.784Z,44.35
2019-05-22T03:21:14.784Z,44.25
2019-05-22T03:22:14.773Z,44.25
2019-05-22T03:23:14.785Z,44.45
2019-05-22T03:24:14.781Z,44.45
2019-05-22T03:25:14.774Z,44.45
2019-05-22T03:26:14.781Z,44.35
2019-05-22T03:27:14.758Z,44.05
2019-05-22T03:28:14.752Z,44.25
2019-05-22T03:29:14.747Z,44.55
2019-05-22T03:30:14.751Z,44.35
2019-05-22T03:31:14.747Z,44.25
2019-05-22T03:32:14.740Z,44.27
2019-05-22T03:33:14.743Z,44.25
2019-05-22T03:34:14.721Z,44.45
2019-05-22T03:35:14.731Z,44.25
2019-05-22T03:36:14.702Z,44.15
2019-05-22T03:37:14.764Z,44.27
2019-05-22T03:38:14.691Z,44.15
2019-05-22T03:39:14.687Z,44.27
2019-05-22T03:40:14.681Z,44.57
2019-05-22T03:41:14.674Z,44.17
2019-05-22T03:42:14.669Z,44.07
2019-05-22T03:43:14.671Z,44.35
2019-05-22T03:44:14.653Z,44.27
2019-05-22T03:45:14.653Z,44.17
2019-05-22T03:46:14.649Z,44.25
2019-05-22T03:47:14.635Z,44.25
2019-05-22T03:48:14.639Z,44.47
2019-05-22T03:49:29.292Z,44.25
2019-05-22T03:50:15.613Z,44.07
2019-05-22T03:51:14.646Z,44.15
2019-05-22T03:52:14.617Z,44.17
2019-05-22T03:53:14.626Z,44.17
2019-05-22T03:54:14.604Z,44.35
2019-05-22T03:55:14.593Z,44.25
2019-05-22T03:56:14.607Z,44.27
2019-05-22T03:57:14.607Z,44.37
2019-05-22T03:58:14.586Z,44.27
2019-05-22T03:59:14.588Z,44.17
2019-05-22T04:00:14.563Z,44.27
2019-05-22T04:01:14.559Z,44.15
2019-05-22T04:02:14.574Z,44.67
2019-05-22T04:03:14.559Z,44.47
2019-05-22T04:04:14.557Z,44.25
2019-05-22T04:05:14.542Z,44.17
2019-05-22T04:06:14.546Z,44.15
2019-05-22T04:07:14.535Z,44.55
2019-05-22T04:08:14.532Z,44.15
2019-05-22T04:09:14.507Z,44.25
2019-05-22T04:10:14.507Z,44.75
2019-05-22T04:11:14.491Z,44.27
2019-05-22T04:12:14.488Z,44.85
2019-05-22T04:13:14.512Z,44.55
2019-05-22T04:14:14.494Z,44.27
2019-05-22T04:15:14.593Z,44.27
2019-05-22T04:16:14.499Z,44.15
2019-05-22T04:17:14.489Z,44.78
2019-05-22T04:18:14.492Z,44.17
2019-05-22T04:19:14.475Z,44.75
2019-05-22T04:20:14.466Z,44.15
2019-05-22T04:21:14.484Z,44.17
2019-05-22T04:22:14.466Z,44.17
2019-05-22T04:23:14.447Z,44.17
2019-05-22T04:24:14.442Z,44.27
2019-05-22T04:25:14.430Z,44.25
2019-05-22T04:26:14.434Z,44.07
2019-05-22T04:27:14.419Z,44.27
2019-05-22T04:28:14.411Z,44.17
2019-05-22T04:29:14.404Z,44.25
2019-05-22T04:30:14.408Z,44.17
2019-05-22T04:31:14.400Z,44.27
2019-05-22T04:32:14.384Z,44.17
2019-05-22T04:33:14.374Z,44.07
2019-05-22T04:34:14.357Z,44.25
2019-05-22T04:35:14.362Z,44.25
2019-05-22T04:36:14.354Z,44.17
2019-05-22T04:37:14.387Z,44.27
2019-05-22T04:38:14.369Z,43.98
2019-05-22T04:39:14.361Z,44.27
2019-05-22T04:40:14.351Z,44.17
2019-05-22T04:41:14.346Z,44.27
2019-05-22T04:42:14.337Z,44.27
2019-05-22T04:43:14.353Z,44.27
2019-05-22T04:44:14.332Z,44.17
2019-05-22T04:45:14.317Z,44.75
2019-05-22T04:46:14.311Z,44.27
2019-05-22T04:47:14.305Z,44.65
2019-05-22T04:48:14.390Z,44.27
2019-05-22T04:49:14.300Z,44.15
2019-05-22T04:50:14.271Z,44.57
2019-05-22T04:51:14.279Z,44.65
2019-05-22T04:52:14.251Z,44.37
2019-05-22T04:53:14.253Z,44.25
2019-05-22T04:54:14.252Z,44.17
2019-05-22T04:55:14.234Z,44.17
2019-05-22T04:56:14.224Z,44.27
2019-05-22T04:57:14.229Z,44.27
2019-05-22T04:58:14.215Z,44.67
2019-05-22T04:59:14.284Z,44.57
2019-05-22T05:00:14.191Z,44.67
2019-05-22T05:01:14.187Z,44.57
2019-05-22T05:02:14.176Z,44.17
2019-05-22T05:03:14.172Z,44.37
2019-05-22T05:04:14.158Z,44.27
2019-05-22T05:05:14.161Z,44.17
2019-05-22T05:06:14.182Z,44.15
2019-05-22T05:07:14.131Z,43.95
2019-05-22T05:08:14.133Z,44.27
2019-05-22T05:09:14.131Z,44.27
2019-05-22T05:10:14.120Z,44.27
2019-05-22T05:11:14.103Z,44.17
2019-05-22T05:12:14.094Z,44.27
2019-05-22T05:13:14.088Z,44.47
2019-05-22T05:14:14.083Z,44.27
2019-05-22T05:15:14.072Z,43.98
2019-05-22T05:16:14.070Z,44.17
2019-05-22T05:17:14.059Z,44.17
2019-05-22T05:18:14.053Z,43.98
2019-05-22T05:19:14.037Z,44.27
2019-05-22T05:20:22.173Z,44.27
2019-05-22T05:21:15.029Z,44.57
2019-05-22T05:22:14.035Z,44.27
2019-05-22T05:23:14.065Z,44.17
2019-05-22T05:24:14.041Z,44.57
2019-05-22T05:25:14.029Z,44.65
2019-05-22T05:26:14.018Z,44.27
2019-05-22T05:27:14.080Z,44.25
2019-05-22T05:28:14.001Z,44.27
2019-05-22T05:29:13.996Z,44.27
2019-05-22T05:30:14.000Z,44.17
2019-05-22T05:31:13.979Z,44.27
2019-05-22T05:32:13.995Z,44.27
2019-05-22T05:33:14.000Z,44.17
2019-05-22T05:34:13.962Z,44.15
2019-05-22T05:35:13.949Z,44.37
2019-05-22T05:36:13.940Z,44.57
2019-05-22T05:37:13.944Z,44.75
2019-05-22T05:38:13.932Z,44.17
2019-05-22T05:39:13.916Z,44.17
2019-05-22T05:40:13.909Z,44.78
2019-05-22T05:41:13.903Z,44.27
2019-05-22T05:42:13.899Z,44.27
2019-05-22T05:43:13.887Z,44.17
2019-05-22T05:44:13.877Z,44.45
2019-05-22T05:45:13.964Z,44.57
2019-05-22T05:46:13.877Z,44.75
2019-05-22T05:47:13.854Z,44.15
2019-05-22T05:48:13.843Z,44.25
2019-05-22T05:49:13.846Z,44.57
2019-05-22T05:50:13.869Z,44.15
2019-05-22T05:51:13.827Z,44.78
2019-05-22T05:52:13.838Z,43.98
2019-05-22T05:53:13.821Z,44.75
2019-05-22T05:54:13.821Z,43.98
2019-05-22T05:55:13.809Z,43.87
2019-05-22T05:56:13.820Z,43.98
2019-05-22T05:57:13.794Z,44.05
2019-05-22T05:58:13.786Z,44.07
2019-05-22T05:59:13.785Z,43.98
2019-05-22T06:00:13.766Z,44.75
2019-05-22T06:01:13.787Z,43.77
2019-05-22T06:02:13.779Z,44.57
2019-05-22T06:03:13.765Z,43.85
2019-05-22T06:04:13.761Z,44.55
2019-05-22T06:05:13.765Z,43.98
2019-05-22T06:06:13.757Z,44.85
2019-05-22T06:07:13.767Z,44.05
2019-05-22T06:08:13.737Z,44.37
2019-05-22T06:09:13.730Z,44.07
2019-05-22T06:10:13.739Z,43.87
2019-05-22T06:11:13.722Z,43.98
2019-05-22T06:12:13.715Z,44.15
2019-05-22T06:13:13.731Z,44.47
2019-05-22T06:14:13.688Z,44.17
2019-05-22T06:15:13.689Z,43.95
2019-05-22T06:16:13.688Z,44.37
2019-05-22T06:17:13.684Z,44.47
2019-05-22T06:18:13.659Z,43.98
2019-05-22T06:19:13.667Z,43.85
2019-05-22T06:20:13.640Z,44.17
2019-05-22T06:21:13.636Z,43.85
2019-05-22T06:22:13.623Z,43.98
2019-05-22T06:23:13.618Z,43.98
2019-05-22T06:24:13.611Z,44.25
2019-05-22T06:25:13.711Z,43.98
2019-05-22T06:26:13.596Z,43.95
2019-05-22T06:27:13.587Z,43.95
2019-05-22T06:28:13.588Z,44.17
2019-05-22T06:29:13.581Z,44.15
2019-05-22T06:30:13.559Z,44.15
2019-05-22T06:31:13.556Z,44.57
2019-05-22T06:32:13.579Z,43.85
2019-05-22T06:33:13.623Z,43.95
2019-05-22T06:34:13.536Z,43.98
2019-05-22T06:35:13.571Z,44.45
2019-05-22T06:36:13.521Z,44.15
2019-05-22T06:37:13.529Z,43.95
2019-05-22T06:38:13.540Z,43.98
2019-05-22T06:39:13.528Z,44.45
2019-05-22T06:40:13.507Z,44.17
2019-05-22T06:41:13.501Z,44.17
2019-05-22T06:42:13.493Z,44.35
2019-05-22T06:43:13.501Z,43.95
2019-05-22T06:44:13.479Z,44.17
2019-05-22T06:45:13.471Z,43.95
2019-05-22T06:46:13.486Z,44.25
2019-05-22T06:47:13.467Z,44.55
2019-05-22T06:48:13.445Z,44.55
2019-05-22T06:49:13.441Z,44.15
2019-05-22T06:50:13.427Z,43.95
2019-05-22T06:51:19.395Z,44.45
2019-05-22T06:52:14.407Z,44.45
2019-05-22T06:53:13.407Z,44.45
2019-05-22T06:54:13.403Z,44.55
2019-05-22T06:55:13.405Z,43.98
2019-05-22T06:56:13.389Z,43.95
2019-05-22T06:57:13.455Z,44.45
2019-05-22T06:58:13.373Z,44.05
2019-05-22T06:59:13.515Z,44.25
2019-05-22T07:00:17.867Z,44.25
2019-05-22T07:01:13.366Z,43.85
2019-05-22T07:02:13.414Z,44.05
2019-05-22T07:03:13.337Z,44.45
2019-05-22T07:04:13.329Z,43.85
2019-05-22T07:05:13.349Z,43.95
2019-05-22T07:06:13.323Z,43.98
2019-05-22T07:07:13.316Z,43.75
2019-05-22T07:08:13.302Z,43.95
2019-05-22T07:09:13.290Z,43.65
2019-05-22T07:10:13.375Z,43.85
2019-05-22T07:11:13.288Z,43.95
2019-05-22T07:12:13.269Z,43.65
2019-05-22T07:13:13.260Z,44.25
2019-05-22T07:14:13.284Z,43.65
2019-05-22T07:15:13.248Z,43.75
2019-05-22T07:16:13.261Z,43.95
2019-05-22T07:17:13.238Z,43.75
2019-05-22T07:18:13.614Z,43.95
2019-05-22T07:19:13.212Z,43.55
2019-05-22T07:20:13.276Z,43.75
2019-05-22T07:21:13.225Z,44.15
2019-05-22T07:22:13.197Z,43.95
2019-05-22T07:23:13.191Z,44.15
2019-05-22T07:24:13.203Z,44.35
2019-05-22T07:25:13.172Z,43.75
2019-05-22T07:26:13.175Z,44.05
2019-05-22T07:27:13.193Z,43.95
2019-05-22T07:28:13.168Z,43.85
2019-05-22T07:29:13.169Z,43.75
2019-05-22T07:30:13.148Z,43.75
2019-05-22T07:31:13.222Z,43.95
2019-05-22T07:32:13.241Z,43.95
2019-05-22T07:33:13.162Z,44.15
2019-05-22T07:34:13.139Z,43.85
2019-05-22T07:35:13.141Z,44.15
2019-05-22T07:36:16.751Z,43.75
2019-05-22T07:37:13.097Z,44.15
2019-05-22T07:38:13.095Z,44.15
2019-05-22T07:39:13.083Z,43.75
2019-05-22T07:40:13.078Z,44.15
2019-05-22T07:41:13.071Z,43.55
2019-05-22T07:42:13.060Z,43.95
2019-05-22T07:43:13.073Z,43.95
2019-05-22T07:44:13.075Z,43.85
2019-05-22T07:45:13.061Z,43.75
2019-05-22T07:46:13.064Z,44.15
2019-05-22T07:47:13.039Z,44.35
2019-05-22T07:48:13.759Z,44.05
2019-05-22T07:49:13.037Z,44.17
2019-05-22T07:50:13.017Z,43.95
2019-05-22T07:51:13.010Z,43.85
2019-05-22T07:52:13.003Z,43.55
2019-05-22T07:53:12.996Z,43.95
2019-05-22T07:54:12.990Z,43.95
2019-05-22T07:55:12.979Z,43.55
2019-05-22T07:56:13.008Z,43.75
2019-05-22T07:57:12.971Z,43.85
2019-05-22T07:58:12.959Z,43.95
2019-05-22T07:59:12.971Z,43.75
2019-05-22T08:00:12.938Z,43.95
2019-05-22T08:01:12.931Z,44.15
2019-05-22T08:02:12.924Z,43.75
2019-05-22T08:03:12.917Z,44.15
2019-05-22T08:04:12.910Z,43.75
2019-05-22T08:05:12.924Z,44.05
2019-05-22T08:06:12.891Z,43.55
2019-05-22T08:07:12.885Z,43.55
2019-05-22T08:08:12.882Z,43.75
2019-05-22T08:09:12.874Z,44.05
2019-05-22T08:10:12.873Z,43.95
2019-05-22T08:11:12.859Z,43.95
2019-05-22T08:12:12.873Z,43.75
2019-05-22T08:13:12.865Z,43.55
2019-05-22T08:14:12.855Z,43.75
2019-05-22T08:15:12.862Z,43.55
2019-05-22T08:16:12.843Z,43.55
2019-05-22T08:17:12.831Z,43.65
2019-05-22T08:18:12.847Z,43.75
2019-05-22T08:19:12.830Z,43.75
2019-05-22T08:20:12.812Z,43.65
2019-05-22T08:21:12.813Z,43.85
2019-05-22T08:22:12.800Z,43.65
2019-05-22T08:23:12.789Z,43.45
2019-05-22T08:24:12.819Z,43.55
2019-05-22T08:25:12.766Z,43.65
2019-05-22T08:26:12.780Z,43.55
2019-05-22T08:27:12.772Z,43.75
2019-05-22T08:28:12.765Z,43.45
2019-05-22T08:29:12.758Z,43.15
2019-05-22T08:30:12.743Z,43.75
2019-05-22T08:31:12.736Z,43.25
2019-05-22T08:32:12.732Z,43.45
2019-05-22T08:33:12.726Z,42.85
2019-05-22T08:34:12.720Z,43.15
2019-05-22T08:35:12.713Z,43.15
2019-05-22T08:36:12.806Z,43.05
2019-05-22T08:37:12.695Z,43.05
2019-05-22T08:38:12.690Z,42.85
2019-05-22T08:39:12.677Z,43.15
2019-05-22T08:40:12.710Z,43.15
2019-05-22T08:41:12.704Z,43.55
2019-05-22T08:42:12.698Z,43.45
2019-05-22T08:43:12.799Z,43.15
2019-05-22T08:44:16.553Z,43.15
2019-05-22T08:45:12.666Z,43.05
2019-05-22T08:46:12.679Z,43.45
2019-05-22T08:47:12.660Z,43.13
2019-05-22T08:48:12.669Z,43.15
2019-05-22T08:49:12.729Z,42.95
2019-05-22T08:50:12.653Z,43.65
2019-05-22T08:51:12.656Z,43.55
2019-05-22T08:52:23.127Z,43.55
2019-05-22T08:53:13.630Z,43.15
2019-05-22T08:54:12.628Z,43.15
2019-05-22T08:55:12.611Z,43.75
2019-05-22T08:56:12.605Z,43.55
2019-05-22T08:57:12.598Z,43.15
2019-05-22T08:58:12.639Z,43.65
2019-05-22T08:59:19.435Z,43.75
2019-05-22T09:00:13.581Z,43.05
2019-05-22T09:01:12.592Z,43.53
2019-05-22T09:02:12.557Z,43.45
2019-05-22T09:03:12.564Z,43.75
2019-05-22T09:04:12.681Z,43.45
2019-05-22T09:05:12.601Z,43.15
2019-05-22T09:06:12.552Z,42.85
2019-05-22T09:07:12.521Z,43.15
2019-05-22T09:08:12.545Z,43.55
2019-05-22T09:09:12.536Z,43.15
2019-05-22T09:10:12.521Z,43.55
2019-05-22T09:11:12.538Z,42.93
2019-05-22T09:12:12.516Z,43.05
2019-05-22T09:13:12.529Z,42.85
2019-05-22T09:14:12.501Z,43.05
2019-05-22T09:15:12.502Z,43.05
2019-05-22T09:16:12.516Z,43.05
2019-05-22T09:17:12.479Z,42.95
2019-05-22T09:18:12.528Z,43.05
2019-05-22T09:19:12.729Z,42.93
2019-05-22T09:20:12.466Z,43.03
2019-05-22T09:21:12.453Z,42.85
2019-05-22T09:22:12.487Z,42.83
2019-05-22T09:23:12.436Z,43.25
2019-05-22T09:24:12.434Z,42.85
2019-05-22T09:25:12.768Z,42.83
2019-05-22T09:26:12.442Z,43.23
2019-05-22T09:27:12.428Z,43.45
2019-05-22T09:28:12.419Z,43.25
2019-05-22T09:29:12.410Z,43.23
2019-05-22T09:30:12.399Z,43.45
2019-05-22T09:31:12.436Z,42.85
2019-05-22T09:32:12.380Z,42.83
2019-05-22T09:33:12.436Z,42.93
2019-05-22T09:34:12.368Z,43.23
2019-05-22T09:35:12.360Z,42.95
2019-05-22T09:36:12.345Z,43.43
2019-05-22T09:37:12.339Z,43.03
2019-05-22T09:38:12.350Z,43.25
2019-05-22T09:39:12.326Z,43.25
2019-05-22T09:40:12.318Z,42.85
2019-05-22T09:41:12.362Z,43.23
2019-05-22T09:42:12.309Z,43.23
2019-05-22T09:43:12.318Z,42.73
2019-05-22T09:44:15.283Z,43.33
2019-05-22T09:45:12.280Z,42.95
2019-05-22T09:46:12.269Z,43.05
2019-05-22T09:47:12.299Z,43.33
2019-05-22T09:48:12.257Z,43.23
2019-05-22T09:49:12.258Z,43.13
2019-05-22T09:50:12.248Z,42.95
2019-05-22T09:51:12.257Z,43.23
2019-05-22T09:52:12.232Z,43.45
2019-05-22T09:53:12.232Z,43.23
2019-05-22T09:54:12.225Z,43.25
2019-05-22T09:55:12.213Z,42.93
2019-05-22T09:56:12.204Z,42.83
2019-05-22T09:57:12.287Z,42.93
2019-05-22T09:58:12.188Z,42.95
2019-05-22T09:59:12.214Z,43.13
2019-05-22T10:00:12.182Z,42.95
2019-05-22T10:01:12.301Z,43.33
2019-05-22T10:02:12.157Z,42.83
2019-05-22T10:03:12.153Z,42.95
2019-05-22T10:04:12.143Z,43.45
2019-05-22T10:05:12.145Z,42.93
2019-05-22T10:06:12.129Z,42.83
2019-05-22T10:07:12.120Z,43.25
2019-05-22T10:08:12.254Z,43.03
2019-05-22T10:09:12.103Z,43.03
2019-05-22T10:10:12.120Z,43.05
2019-05-22T10:11:12.108Z,43.15
2019-05-22T10:12:12.094Z,42.83
2019-05-22T10:13:12.184Z,43.13
2019-05-22T10:14:12.081Z,43.35
2019-05-22T10:15:12.074Z,42.83
2019-05-22T10:16:12.102Z,42.95
2019-05-22T10:17:12.078Z,43.45
2019-05-22T10:18:12.059Z,43.43
2019-05-22T10:19:12.055Z,43.33
2019-05-22T10:20:12.051Z,42.83
2019-05-22T10:21:12.053Z,43.23
2019-05-22T10:22:12.034Z,43.25
2019-05-22T10:23:15.945Z,43.25
2019-05-22T10:24:12.030Z,42.83
2019-05-22T10:25:16.445Z,42.93
2019-05-22T10:26:13.020Z,42.93
2019-05-22T10:27:12.018Z,43.25
2019-05-22T10:28:12.020Z,42.95
2019-05-22T10:29:12.000Z,43.23
2019-05-22T10:30:11.979Z,42.83
2019-05-22T10:31:13.774Z,43.23
2019-05-22T10:32:11.970Z,43.23
2019-05-22T10:33:11.998Z,43.23
2019-05-22T10:34:11.949Z,43.03
2019-05-22T10:35:11.946Z,43.05
2019-05-22T10:36:11.934Z,43.03
2019-05-22T10:37:11.957Z,43.03
2019-05-22T10:38:11.926Z,43.25
2019-05-22T10:39:11.930Z,43.23
2019-05-22T10:40:11.901Z,43.23
2019-05-22T10:41:11.893Z,43.23
2019-05-22T10:42:11.894Z,43.23
2019-05-22T10:43:11.892Z,43.43
2019-05-22T10:44:11.888Z,43.33
2019-05-22T10:45:11.876Z,43.23
2019-05-22T10:46:11.960Z,43.23
2019-05-22T10:47:11.882Z,43.23
2019-05-22T10:48:11.961Z,43.03
2019-05-22T10:49:11.881Z,43.23
2019-05-22T10:50:11.883Z,43.03
2019-05-22T10:51:11.873Z,43.43
2019-05-22T10:52:11.868Z,43.33
2019-05-22T10:53:11.856Z,43.43
2019-05-22T10:54:11.880Z,43.23
2019-05-22T10:55:11.936Z,43.23
2019-05-22T10:56:11.869Z,43.03
2019-05-22T10:57:11.826Z,43.03
2019-05-22T10:58:11.819Z,43.43
2019-05-22T10:59:11.824Z,43.13
2019-05-22T11:00:11.801Z,43.43
2019-05-22T11:01:11.791Z,43.23
2019-05-22T11:02:11.794Z,43.03
2019-05-22T11:03:11.790Z,43.23
2019-05-22T11:04:11.787Z,43.13
2019-05-22T11:05:11.788Z,43.23
2019-05-22T11:06:11.770Z,43.23
2019-05-22T11:07:11.765Z,42.73
2019-05-22T11:08:11.753Z,43.13
2019-05-22T11:09:11.759Z,43.03
2019-05-22T11:10:11.749Z,43.03
2019-05-22T11:11:11.729Z,42.83
2019-05-22T11:12:11.740Z,43.33
2019-05-22T11:13:11.731Z,42.63
2019-05-22T11:14:11.744Z,43.03
2019-05-22T11:15:11.713Z,42.93
2019-05-22T11:16:11.712Z,42.93
2019-05-22T11:17:11.729Z,42.91
2019-05-22T11:18:11.689Z,43.03
2019-05-22T11:19:12.166Z,42.91
2019-05-22T11:20:11.710Z,43.33
2019-05-22T11:21:11.739Z,43.23
2019-05-22T11:22:11.675Z,42.63
2019-05-22T11:23:11.665Z,43.11
2019-05-22T11:24:11.657Z,43.41
2019-05-22T11:25:11.654Z,43.33
2019-05-22T11:26:11.673Z,42.81
2019-05-22T11:27:11.708Z,42.83
2019-05-22T11:28:11.640Z,43.71
2019-05-22T11:29:11.628Z,44.01
2019-05-22T11:30:11.662Z,43.61
2019-05-22T11:31:11.640Z,44.11
2019-05-22T11:32:11.630Z,44.51
2019-05-22T11:33:11.659Z,44.51
2019-05-22T11:34:11.621Z,44.11
2019-05-22T11:35:11.613Z,43.91
2019-05-22T11:36:11.596Z,44.41
2019-05-22T11:37:11.636Z,43.91
2019-05-22T11:38:11.610Z,44.51
2019-05-22T11:39:11.585Z,44.81
2019-05-22T11:40:11.603Z,44.01
2019-05-22T11:41:11.559Z,43.91
2019-05-22T11:42:11.547Z,44.11
2019-05-22T11:43:11.551Z,44.61
2019-05-22T11:44:11.595Z,44.11
2019-05-22T11:45:11.532Z,44.11
2019-05-22T11:46:11.516Z,44.11
2019-05-22T11:47:11.506Z,44.21
2019-05-22T11:48:11.552Z,43.91
2019-05-22T11:49:11.505Z,44.29
2019-05-22T11:50:11.490Z,44.31
2019-05-22T11:51:11.495Z,44.19
2019-05-22T11:52:11.487Z,44.29
2019-05-22T11:53:11.473Z,44.61
2019-05-22T11:54:11.548Z,44.21
2019-05-22T11:55:11.461Z,44.41
2019-05-22T11:56:11.456Z,44.21
2019-05-22T11:57:11.434Z,44.19
2019-05-22T11:58:11.462Z,44.49
2019-05-22T11:59:11.422Z,44.19
2019-05-22T12:00:11.423Z,44.09
2019-05-22T12:01:11.410Z,44.29
2019-05-22T12:02:11.419Z,44.01
2019-05-22T12:03:11.416Z,44.49
2019-05-22T12:04:11.465Z,44.11
2019-05-22T12:05:11.482Z,44.21
2019-05-22T12:06:11.406Z,44.38
2019-05-22T12:07:11.393Z,44.21
2019-05-22T12:08:11.377Z,44.09
2019-05-22T12:09:11.368Z,44.09
2019-05-22T12:10:11.372Z,44.38
2019-05-22T12:11:11.430Z,44.11
2019-05-22T12:12:11.363Z,44.49
2019-05-22T12:13:11.787Z,44.19
2019-05-22T12:14:11.401Z,44.49
2019-05-22T12:15:11.347Z,44.09
2019-05-22T12:16:11.362Z,44.59
2019-05-22T12:17:11.364Z,44.09
2019-05-22T12:18:11.322Z,44.09
2019-05-22T12:19:11.318Z,44.69
2019-05-22T12:20:11.341Z,44.49
2019-05-22T12:21:11.300Z,44.49
2019-05-22T12:22:11.297Z,44.59
2019-05-22T12:23:11.342Z,44.09
2019-05-22T12:24:26.016Z,44.19
2019-05-22T12:25:12.267Z,44.29
2019-05-22T12:26:11.276Z,44.38
2019-05-22T12:27:11.276Z,44.19
2019-05-22T12:28:11.242Z,44.38
2019-05-22T12:29:11.235Z,44.09
2019-05-22T12:30:11.274Z,43.89
2019-05-22T12:31:11.237Z,43.89
2019-05-22T12:32:11.213Z,44.09
2019-05-22T12:33:13.987Z,44.19
2019-05-22T12:34:11.198Z,44.29
2019-05-22T12:35:11.212Z,44.19
2019-05-22T12:36:11.207Z,44.19
2019-05-22T12:37:11.219Z,44.09
2019-05-22T12:38:11.246Z,44.09
2019-05-22T12:39:11.209Z,44.38
2019-05-22T12:40:11.191Z,44.19
2019-05-22T12:41:11.182Z,43.99
2019-05-22T12:42:11.191Z,44.38
2019-05-22T12:43:11.191Z,44.29
2019-05-22T12:44:11.182Z,44.19
2019-05-22T12:45:11.161Z,44.19
2019-05-22T12:46:11.151Z,44.19
2019-05-22T12:47:11.130Z,44.38
2019-05-22T12:48:11.148Z,44.19
2019-05-22T12:49:11.125Z,44.38
2019-05-22T12:50:11.155Z,44.09
2019-05-22T12:51:11.113Z,44.19
2019-05-22T12:52:11.100Z,44.09